Portland, Oregon
Traffic Map
Current Weather Conditions
Portland, Oregon
Clear
Clear
78°
Feels Like: 79°
Wind Chill: 78° Ceiling: Unl
Heat Index: 79° Visibility: 10mi
Dew Point: 57° Wind: 0mph
Humidity: 48% Direction: ° ()
Pressure: 30.07in Gusts: 0mph
Raw Report DataKPDX 272053Z 00000KT 10SM CLR 26/14 A3007 RMK AO2 SLP180 T02560139 58017
Traffic Incident Summary
Active as of:
Severity:
Category:
InformationThere was an issue retrieving the traffic information for this location. Please try a different location or try again shortly.
Advertisements
Track Severe Weather on mobile